sensor_id;sensor_type;location;lat;lon;timestamp;pressure;altitude;pressure_sealevel;temperature;humidity
79242;BME280;68670;48.720;9.118;2023-07-29T00:01:01;96496.63;;;15.43;99.17
79242;BME280;68670;48.720;9.118;2023-07-29T00:03:29;96493.03;;;15.48;98.91
79242;BME280;68670;48.720;9.118;2023-07-29T00:05:58;96479.50;;;15.46;99.08
79242;BME280;68670;48.720;9.118;2023-07-29T00:08:23;96481.72;;;15.50;99.78
79242;BME280;68670;48.720;9.118;2023-07-29T00:10:48;96486.13;;;15.51;100.00
79242;BME280;68670;48.720;9.118;2023-07-29T00:13:14;96484.44;;;15.55;99.91
79242;BME280;68670;48.720;9.118;2023-07-29T00:15:41;96482.81;;;15.49;100.00
79242;BME280;68670;48.720;9.118;2023-07-29T00:18:06;96480.91;;;15.44;100.00
79242;BME280;68670;48.720;9.118;2023-07-29T00:20:32;96483.38;;;15.45;100.00
79242;BME280;68670;48.720;9.118;2023-07-29T00:22:59;96480.59;;;15.51;100.00
79242;BME280;68670;48.720;9.118;2023-07-29T00:25:24;96480.59;;;15.51;100.00
79242;BME280;68670;48.720;9.118;2023-07-29T00:27:56;96489.97;;;15.55;100.00
79242;BME280;68670;48.720;9.118;2023-07-29T00:30:26;96476.72;;;15.57;100.00
79242;BME280;68670;48.720;9.118;2023-07-29T00:32:53;96484.13;;;15.61;100.00
79242;BME280;68670;48.720;9.118;2023-07-29T00:35:19;96476.09;;;15.65;100.00
79242;BME280;68670;48.720;9.118;2023-07-29T00:37:46;96477.75;;;15.66;100.00
79242;BME280;68670;48.720;9.118;2023-07-29T00:40:18;96476.09;;;15.65;100.00
79242;BME280;68670;48.720;9.118;2023-07-29T00:42:44;96482.47;;;15.65;100.00
79242;BME280;68670;48.720;9.118;2023-07-29T00:45:12;96478.88;;;15.65;100.00
79242;BME280;68670;48.720;9.118;2023-07-29T00:47:40;96487.50;;;15.58;100.00
79242;BME280;68670;48.720;9.118;2023-07-29T00:50:09;96481.16;;;15.58;100.00
79242;BME280;68670;48.720;9.118;2023-07-29T00:52:38;96481.97;;;15.58;100.00
79242;BME280;68670;48.720;9.118;2023-07-29T00:55:05;96478.63;;;15.61;100.00
79242;BME280;68670;48.720;9.118;2023-07-29T00:57:30;96486.91;;;15.61;100.00
79242;BME280;68670;48.720;9.118;2023-07-29T00:59:56;96478.31;;;15.63;100.00
79242;BME280;68670;48.720;9.118;2023-07-29T01:02:22;96473.31;;;15.70;100.00
79242;BME280;68670;48.720;9.118;2023-07-29T01:04:55;96471.09;;;15.72;100.00
79242;BME280;68670;48.720;9.118;2023-07-29T01:10:00;96461.69;;;15.78;100.00
79242;BME280;68670;48.720;9.118;2023-07-29T01:12:36;96459.50;;;15.75;100.00
79242;BME280;68670;48.720;9.118;2023-07-29T01:17:46;96463.66;;;15.67;100.00
79242;BME280;68670;48.720;9.118;2023-07-29T01:20:16;96462.84;;;15.67;100.00
79242;BME280;68670;48.720;9.118;2023-07-29T01:22:44;96457.91;;;15.64;100.00
79242;BME280;68670;48.720;9.118;2023-07-29T01:25:15;96456.03;;;15.59;100.00
79242;BME280;68670;48.720;9.118;2023-07-29T01:27:47;96458.47;;;15.61;100.00
79242;BME280;68670;48.720;9.118;2023-07-29T01:30:14;96456.53;;;15.61;100.00
79242;BME280;68670;48.720;9.118;2023-07-29T01:35:36;96463.94;;;15.71;100.00
79242;BME280;68670;48.720;9.118;2023-07-29T01:38:09;96457.78;;;15.84;100.00
79242;BME280;68670;48.720;9.118;2023-07-29T01:40:39;96456.63;;;15.90;100.00
79242;BME280;68670;48.720;9.118;2023-07-29T01:43:05;96449.06;;;16.01;100.00
79242;BME280;68670;48.720;9.118;2023-07-29T01:45:32;96458.19;;;16.01;100.00
79242;BME280;68670;48.720;9.118;2023-07-29T01:48:04;96464.78;;;16.05;99.89
79242;BME280;68670;48.720;9.118;2023-07-29T01:50:29;96442.09;;;16.08;99.46
79242;BME280;68670;48.720;9.118;2023-07-29T01:52:54;96452.09;;;16.04;100.00
79242;BME280;68670;48.720;9.118;2023-07-29T01:55:20;96451.28;;;15.99;100.00
79242;BME280;68670;48.720;9.118;2023-07-29T01:57:45;96441.09;;;15.94;100.00
79242;BME280;68670;48.720;9.118;2023-07-29T02:00:11;96435.66;;;15.89;100.00
79242;BME280;68670;48.720;9.118;2023-07-29T02:02:37;96436.22;;;15.86;100.00
79242;BME280;68670;48.720;9.118;2023-07-29T02:05:04;96437.09;;;15.82;100.00
79242;BME280;68670;48.720;9.118;2023-07-29T02:07:30;96432.38;;;15.82;100.00
79242;BME280;68670;48.720;9.118;2023-07-29T02:09:57;96423.53;;;15.85;100.00
79242;BME280;68670;48.720;9.118;2023-07-29T02:12:23;96420.22;;;15.83;100.00
79242;BME280;68670;48.720;9.118;2023-07-29T02:14:51;96414.75;;;15.78;100.00
79242;BME280;68670;48.720;9.118;2023-07-29T02:17:16;96416.13;;;15.75;100.00
79242;BME280;68670;48.720;9.118;2023-07-29T02:19:47;96415.06;;;15.71;100.00
79242;BME280;68670;48.720;9.118;2023-07-29T02:22:16;96416.44;;;15.69;100.00
79242;BME280;68670;48.720;9.118;2023-07-29T02:24:44;96421.44;;;15.67;100.00
79242;BME280;68670;48.720;9.118;2023-07-29T02:27:10;96415.94;;;15.62;100.00
79242;BME280;68670;48.720;9.118;2023-07-29T02:29:40;96413.72;;;15.64;100.00
79242;BME280;68670;48.720;9.118;2023-07-29T02:32:05;96422.28;;;15.62;100.00
79242;BME280;68670;48.720;9.118;2023-07-29T02:34:30;96425.94;;;15.58;100.00
79242;BME280;68670;48.720;9.118;2023-07-29T02:36:56;96417.66;;;15.53;100.00
79242;BME280;68670;48.720;9.118;2023-07-29T02:39:21;96410.50;;;15.57;100.00
79242;BME280;68670;48.720;9.118;2023-07-29T02:41:47;96413.78;;;15.54;100.00
79242;BME280;68670;48.720;9.118;2023-07-29T02:44:14;96419.06;;;15.50;100.00
79242;BME280;68670;48.720;9.118;2023-07-29T02:46:40;96422.34;;;15.52;100.00
79242;BME280;68670;48.720;9.118;2023-07-29T02:49:07;96414.91;;;15.53;100.00
79242;BME280;68670;48.720;9.118;2023-07-29T02:51:32;96412.13;;;15.53;100.00
79242;BME280;68670;48.720;9.118;2023-07-29T02:54:00;96413.28;;;15.46;100.00
79242;BME280;68670;48.720;9.118;2023-07-29T02:56:27;96406.66;;;15.42;100.00
79242;BME280;68670;48.720;9.118;2023-07-29T02:58:55;96410.78;;;15.45;100.00
79242;BME280;68670;48.720;9.118;2023-07-29T03:01:22;96414.63;;;15.49;100.00
79242;BME280;68670;48.720;9.118;2023-07-29T03:03:51;96406.34;;;15.49;100.00
79242;BME280;68670;48.720;9.118;2023-07-29T03:06:16;96398.06;;;15.49;100.00
79242;BME280;68670;48.720;9.118;2023-07-29T03:08:42;96394.50;;;15.49;100.00
79242;BME280;68670;48.720;9.118;2023-07-29T03:11:15;96394.47;;;15.54;100.00
79242;BME280;68670;48.720;9.118;2023-07-29T03:13:40;96387.28;;;15.53;100.00
79242;BME280;68670;48.720;9.118;2023-07-29T03:16:08;96393.94;;;15.57;100.00
79242;BME280;68670;48.720;9.118;2023-07-29T03:18:33;96395.28;;;15.59;100.00
79242;BME280;68670;48.720;9.118;2023-07-29T03:21:01;96384.72;;;15.66;100.00
79242;BME280;68670;48.720;9.118;2023-07-29T03:23:30;96372.84;;;15.66;100.00
79242;BME280;68670;48.720;9.118;2023-07-29T03:25:56;96383.31;;;15.69;100.00
79242;BME280;68670;48.720;9.118;2023-07-29T03:28:27;96376.66;;;15.75;100.00
79242;BME280;68670;48.720;9.118;2023-07-29T03:30:56;96379.66;;;15.78;100.00
79242;BME280;68670;48.720;9.118;2023-07-29T03:33:22;96379.38;;;15.80;100.00
79242;BME280;68670;48.720;9.118;2023-07-29T03:35:49;96384.81;;;15.90;100.00
79242;BME280;68670;48.720;9.118;2023-07-29T03:38:15;96372.66;;;15.91;100.00
79242;BME280;68670;48.720;9.118;2023-07-29T03:40:43;96374.28;;;15.92;100.00
79242;BME280;68670;48.720;9.118;2023-07-29T03:43:08;96379.75;;;15.97;99.62
79242;BME280;68670;48.720;9.118;2023-07-29T03:45:36;96372.00;;;15.99;99.36
79242;BME280;68670;48.720;9.118;2023-07-29T03:48:02;96367.66;;;15.93;99.82
79242;BME280;68670;48.720;9.118;2023-07-29T03:50:33;96380.25;;;16.04;99.38
79242;BME280;68670;48.720;9.118;2023-07-29T03:53:03;96382.06;;;16.19;98.02
79242;BME280;68670;48.720;9.118;2023-07-29T03:55:29;96384.03;;;16.13;98.10
79242;BME280;68670;48.720;9.118;2023-07-29T03:57:58;96388.88;;;16.27;97.00
79242;BME280;68670;48.720;9.118;2023-07-29T04:00:24;96383.63;;;16.25;97.11
79242;BME280;68670;48.720;9.118;2023-07-29T04:02:49;96388.88;;;16.27;97.04
79242;BME280;68670;48.720;9.118;2023-07-29T04:05:14;96389.47;;;16.24;97.38
79242;BME280;68670;48.720;9.118;2023-07-29T04:07:42;96393.69;;;16.16;98.78
79242;BME280;68670;48.720;9.118;2023-07-29T04:10:08;96385.56;;;16.25;98.47
79242;BME280;68670;48.720;9.118;2023-07-29T04:12:36;96377.28;;;16.25;99.00
79242;BME280;68670;48.720;9.118;2023-07-29T04:15:04;96381.69;;;16.26;98.67
79242;BME280;68670;48.720;9.118;2023-07-29T04:17:32;96371.25;;;16.23;98.68
79242;BME280;68670;48.720;9.118;2023-07-29T04:20:00;96386.41;;;16.25;98.54
79242;BME280;68670;48.720;9.118;2023-07-29T04:22:27;96382.75;;;16.30;98.17
79242;BME280;68670;48.720;9.118;2023-07-29T04:24:53;96383.84;;;16.34;98.44
79242;BME280;68670;48.720;9.118;2023-07-29T04:27:18;96388.78;;;16.37;97.97
79242;BME280;68670;48.720;9.118;2023-07-29T04:29:48;96397.06;;;16.37;98.36
79242;BME280;68670;48.720;9.118;2023-07-29T04:32:14;96394.88;;;16.34;98.63
79242;BME280;68670;48.720;9.118;2023-07-29T04:34:39;96391.00;;;16.35;98.30
79242;BME280;68670;48.720;9.118;2023-07-29T04:37:06;96384.38;;;16.36;99.23
79242;BME280;68670;48.720;9.118;2023-07-29T04:39:32;96394.06;;;16.33;99.18
79242;BME280;68670;48.720;9.118;2023-07-29T04:41:59;96392.00;;;16.20;100.00
79242;BME280;68670;48.720;9.118;2023-07-29T04:44:26;96386.22;;;16.17;100.00
79242;BME280;68670;48.720;9.118;2023-07-29T04:46:56;96395.59;;;16.21;100.00
79242;BME280;68670;48.720;9.118;2023-07-29T04:49:21;96385.16;;;16.12;100.00
79242;BME280;68670;48.720;9.118;2023-07-29T04:51:50;96398.44;;;16.10;100.00
79242;BME280;68670;48.720;9.118;2023-07-29T04:54:18;96410.28;;;16.16;100.00
79242;BME280;68670;48.720;9.118;2023-07-29T04:56:47;96419.13;;;16.13;100.00
79242;BME280;68670;48.720;9.118;2023-07-29T04:59:15;96415.00;;;16.10;100.00
79242;BME280;68670;48.720;9.118;2023-07-29T05:01:45;96404.75;;;16.16;100.00
79242;BME280;68670;48.720;9.118;2023-07-29T05:04:11;96407.78;;;16.15;100.00
79242;BME280;68670;48.720;9.118;2023-07-29T05:06:36;96407.78;;;16.15;100.00
79242;BME280;68670;48.720;9.118;2023-07-29T05:09:15;96410.59;;;16.09;100.00
79242;BME280;68670;48.720;9.118;2023-07-29T05:11:41;96401.50;;;16.09;100.00
79242;BME280;68670;48.720;9.118;2023-07-29T05:14:06;96398.47;;;16.05;100.00
79242;BME280;68670;48.720;9.118;2023-07-29T05:16:37;96404.34;;;15.99;100.00
79242;BME280;68670;48.720;9.118;2023-07-29T05:19:02;96396.34;;;15.97;100.00
79242;BME280;68670;48.720;9.118;2023-07-29T05:21:27;96380.34;;;15.94;100.00
79242;BME280;68670;48.720;9.118;2023-07-29T05:23:53;96378.69;;;15.93;100.00
79242;BME280;68670;48.720;9.118;2023-07-29T05:26:18;96391.38;;;15.94;100.00
79242;BME280;68670;48.720;9.118;2023-07-29T05:28:46;96394.59;;;16.06;100.00
79242;BME280;68670;48.720;9.118;2023-07-29T05:31:11;96407.78;;;16.15;100.00
79242;BME280;68670;48.720;9.118;2023-07-29T05:33:39;96398.00;;;16.27;100.00
79242;BME280;68670;48.720;9.118;2023-07-29T05:36:04;96408.41;;;16.35;100.00
79242;BME280;68670;48.720;9.118;2023-07-29T05:38:32;96394.88;;;16.34;100.00
79242;BME280;68670;48.720;9.118;2023-07-29T05:41:02;96388.28;;;16.30;100.00
79242;BME280;68670;48.720;9.118;2023-07-29T05:43:27;96394.06;;;16.33;100.00
79242;BME280;68670;48.720;9.118;2023-07-29T05:45:53;96398.63;;;16.48;100.00
79242;BME280;68670;48.720;9.118;2023-07-29T05:48:19;96391.50;;;16.42;100.00
79242;BME280;68670;48.720;9.118;2023-07-29T05:50:47;96393.63;;;16.50;100.00
79242;BME280;68670;48.720;9.118;2023-07-29T05:53:15;96393.50;;;16.60;100.00
79242;BME280;68670;48.720;9.118;2023-07-29T05:55:43;96392.88;;;16.68;100.00
79242;BME280;68670;48.720;9.118;2023-07-29T05:58:10;96385.72;;;16.62;100.00
79242;BME280;68670;48.720;9.118;2023-07-29T06:00:40;96379.94;;;16.64;100.00
79242;BME280;68670;48.720;9.118;2023-07-29T06:03:06;96380.41;;;16.71;100.00
79242;BME280;68670;48.720;9.118;2023-07-29T06:05:33;96378.47;;;16.71;100.00
79242;BME280;68670;48.720;9.118;2023-07-29T06:07:58;96376.47;;;16.77;100.00
79242;BME280;68670;48.720;9.118;2023-07-29T06:10:24;96385.47;;;16.88;100.00
79242;BME280;68670;48.720;9.118;2023-07-29T06:12:51;96378.84;;;16.89;100.00
79242;BME280;68670;48.720;9.118;2023-07-29T06:15:16;96380.84;;;17.02;100.00
79242;BME280;68670;48.720;9.118;2023-07-29T06:17:42;96393.69;;;17.17;100.00
79242;BME280;68670;48.720;9.118;2023-07-29T06:20:12;96384.78;;;17.20;100.00
79242;BME280;68670;48.720;9.118;2023-07-29T06:22:41;96385.66;;;17.34;100.00
79242;BME280;68670;48.720;9.118;2023-07-29T06:25:07;96385.91;;;17.37;100.00
79242;BME280;68670;48.720;9.118;2023-07-29T06:27:32;96396.31;;;17.45;98.80
79242;BME280;68670;48.720;9.118;2023-07-29T06:29:58;96404.63;;;17.45;98.51
79242;BME280;68670;48.720;9.118;2023-07-29T06:32:23;96398.25;;;17.45;99.82
79242;BME280;68670;48.720;9.118;2023-07-29T06:34:51;96396.31;;;17.45;99.92
79242;BME280;68670;48.720;9.118;2023-07-29T06:37:17;96408.56;;;17.39;100.00
79242;BME280;68670;48.720;9.118;2023-07-29T06:39:42;96414.50;;;17.52;99.06
79242;BME280;68670;48.720;9.118;2023-07-29T06:42:10;96413.88;;;17.55;97.88
79242;BME280;68670;48.720;9.118;2023-07-29T06:44:35;96409.63;;;17.43;99.88
79242;BME280;68670;48.720;9.118;2023-07-29T06:47:00;96410.16;;;17.45;99.61
79242;BME280;68670;48.720;9.118;2023-07-29T06:49:28;96419.41;;;17.55;98.06
79242;BME280;68670;48.720;9.118;2023-07-29T06:51:53;96418.63;;;17.54;98.97
79242;BME280;68670;48.720;9.118;2023-07-29T06:54:18;96423.94;;;17.51;97.74
79242;BME280;68670;48.720;9.118;2023-07-29T06:56:44;96418.75;;;17.44;98.82
79242;BME280;68670;48.720;9.118;2023-07-29T06:59:09;96431.03;;;17.38;99.21
79242;BME280;68670;48.720;9.118;2023-07-29T07:01:37;96433.50;;;17.39;99.03
79242;BME280;68670;48.720;9.118;2023-07-29T07:04:02;96439.75;;;17.26;100.00
79242;BME280;68670;48.720;9.118;2023-07-29T07:06:27;96440.97;;;17.20;100.00
79242;BME280;68670;48.720;9.118;2023-07-29T07:08:55;96442.44;;;17.12;100.00
79242;BME280;68670;48.720;9.118;2023-07-29T07:11:25;96446.66;;;17.05;100.00
79242;BME280;68670;48.720;9.118;2023-07-29T07:13:53;96447.09;;;17.17;100.00
79242;BME280;68670;48.720;9.118;2023-07-29T07:16:21;96441.91;;;17.10;100.00
79242;BME280;68670;48.720;9.118;2023-07-29T07:18:46;96442.84;;;17.01;100.00
79242;BME280;68670;48.720;9.118;2023-07-29T07:21:14;96431.84;;;16.96;100.00
79242;BME280;68670;48.720;9.118;2023-07-29T07:23:39;96433.34;;;16.88;100.00
79242;BME280;68670;48.720;9.118;2023-07-29T07:26:09;96429.66;;;16.93;100.00
79242;BME280;68670;48.720;9.118;2023-07-29T07:28:35;96437.00;;;17.02;100.00
79242;BME280;68670;48.720;9.118;2023-07-29T07:31:00;96443.31;;;17.08;100.00
79242;BME280;68670;48.720;9.118;2023-07-29T07:33:25;96427.88;;;17.02;100.00
79242;BME280;68670;48.720;9.118;2023-07-29T07:35:51;96431.66;;;17.11;100.00
79242;BME280;68670;48.720;9.118;2023-07-29T07:38:16;96431.66;;;17.11;100.00
79242;BME280;68670;48.720;9.118;2023-07-29T07:40:41;96426.72;;;17.08;100.00
79242;BME280;68670;48.720;9.118;2023-07-29T07:43:09;96436.91;;;17.12;100.00
79242;BME280;68670;48.720;9.118;2023-07-29T07:45:36;96436.53;;;17.19;100.00
79242;BME280;68670;48.720;9.118;2023-07-29T07:48:02;96436.06;;;17.12;100.00
79242;BME280;68670;48.720;9.118;2023-07-29T07:50:30;96438.69;;;17.22;100.00
79242;BME280;68670;48.720;9.118;2023-07-29T07:52:55;96435.91;;;17.22;100.00
79242;BME280;68670;48.720;9.118;2023-07-29T07:55:20;96434.81;;;17.23;100.00
79242;BME280;68670;48.720;9.118;2023-07-29T07:57:46;96446.94;;;17.27;100.00
79242;BME280;68670;48.720;9.118;2023-07-29T08:00:14;96445.75;;;17.33;100.00
79242;BME280;68670;48.720;9.118;2023-07-29T08:02:41;96440.63;;;17.45;100.00
79242;BME280;68670;48.720;9.118;2023-07-29T08:05:06;96440.78;;;17.54;99.10
79242;BME280;68670;48.720;9.118;2023-07-29T08:07:34;96447.34;;;17.58;99.40
79242;BME280;68670;48.720;9.118;2023-07-29T08:10:02;96451.94;;;17.68;99.08
79242;BME280;68670;48.720;9.118;2023-07-29T08:12:29;96453.00;;;17.72;99.14
79242;BME280;68670;48.720;9.118;2023-07-29T08:14:59;96451.81;;;17.78;99.29
79242;BME280;68670;48.720;9.118;2023-07-29T08:17:25;96456.56;;;17.91;96.85
79242;BME280;68670;48.720;9.118;2023-07-29T08:19:50;96464.81;;;17.96;97.77
79242;BME280;68670;48.720;9.118;2023-07-29T08:22:18;96457.56;;;18.00;96.56
79242;BME280;68670;48.720;9.118;2023-07-29T08:24:46;96451.84;;;18.10;94.79
79242;BME280;68670;48.720;9.118;2023-07-29T08:27:15;96452.78;;;18.20;95.11
79242;BME280;68670;48.720;9.118;2023-07-29T08:29:43;96464.09;;;18.23;96.95
79242;BME280;68670;48.720;9.118;2023-07-29T08:32:11;96461.53;;;18.27;96.96
79242;BME280;68670;48.720;9.118;2023-07-29T08:34:39;96462.13;;;18.56;98.00
79242;BME280;68670;48.720;9.118;2023-07-29T08:37:04;96455.22;;;18.72;94.41
79242;BME280;68670;48.720;9.118;2023-07-29T08:39:32;96461.00;;;18.90;92.12
79242;BME280;68670;48.720;9.118;2023-07-29T08:42:11;96459.56;;;18.92;91.75
79242;BME280;68670;48.720;9.118;2023-07-29T08:44:41;96460.81;;;19.13;90.24
79242;BME280;68670;48.720;9.118;2023-07-29T08:47:09;96449.69;;;19.55;89.05
79242;BME280;68670;48.720;9.118;2023-07-29T08:49:35;96446.09;;;19.40;88.45
79242;BME280;68670;48.720;9.118;2023-07-29T08:52:09;96447.94;;;19.59;88.15
79242;BME280;68670;48.720;9.118;2023-07-29T08:54:35;96455.66;;;19.98;89.64
79242;BME280;68670;48.720;9.118;2023-07-29T08:57:00;96454.75;;;20.69;89.32
79242;BME280;68670;48.720;9.118;2023-07-29T08:59:26;96447.97;;;20.62;85.70
79242;BME280;68670;48.720;9.118;2023-07-29T09:01:53;96448.28;;;20.60;85.48
79242;BME280;68670;48.720;9.118;2023-07-29T09:04:24;96456.38;;;20.48;84.47
79242;BME280;68670;48.720;9.118;2023-07-29T09:06:58;96447.69;;;20.41;87.18
79242;BME280;68670;48.720;9.118;2023-07-29T09:09:27;96449.97;;;20.39;90.03
79242;BME280;68670;48.720;9.118;2023-07-29T09:11:56;96447.19;;;20.39;87.53
79242;BME280;68670;48.720;9.118;2023-07-29T09:14:21;96444.91;;;20.41;85.22
79242;BME280;68670;48.720;9.118;2023-07-29T09:16:47;96436.91;;;20.48;86.96
79242;BME280;68670;48.720;9.118;2023-07-29T09:19:15;96439.31;;;20.94;88.57
79242;BME280;68670;48.720;9.118;2023-07-29T09:21:41;96439.19;;;21.48;82.60
79242;BME280;68670;48.720;9.118;2023-07-29T09:24:12;96423.97;;;21.54;82.08
79242;BME280;68670;48.720;9.118;2023-07-29T09:29:13;96420.28;;;22.01;77.95
79242;BME280;68670;48.720;9.118;2023-07-29T09:31:40;96421.88;;;21.68;76.31
79242;BME280;68670;48.720;9.118;2023-07-29T09:34:06;96421.66;;;21.47;78.35
79242;BME280;68670;48.720;9.118;2023-07-29T09:36:34;96425.72;;;21.32;79.06
79242;BME280;68670;48.720;9.118;2023-07-29T09:38:59;96414.47;;;21.15;78.43
79242;BME280;68670;48.720;9.118;2023-07-29T09:41:28;96428.56;;;21.10;80.66
79242;BME280;68670;48.720;9.118;2023-07-29T09:44:00;96440.03;;;21.17;82.03
79242;BME280;68670;48.720;9.118;2023-07-29T09:46:35;96431.03;;;21.68;79.78
79242;BME280;68670;48.720;9.118;2023-07-29T09:49:05;96429.72;;;21.83;78.08
79242;BME280;68670;48.720;9.118;2023-07-29T09:51:31;96423.16;;;21.62;77.02
79242;BME280;68670;48.720;9.118;2023-07-29T09:54:02;96421.03;;;21.67;78.63
79242;BME280;68670;48.720;9.118;2023-07-29T09:56:29;96431.06;;;21.94;76.45
79242;BME280;68670;48.720;9.118;2023-07-29T09:58:59;96431.41;;;22.19;77.81
79242;BME280;68670;48.720;9.118;2023-07-29T10:01:25;96427.47;;;22.37;73.95
79242;BME280;68670;48.720;9.118;2023-07-29T10:03:51;96424.84;;;22.32;70.99
79242;BME280;68670;48.720;9.118;2023-07-29T10:06:21;96420.75;;;22.38;70.01
79242;BME280;68670;48.720;9.118;2023-07-29T10:08:47;96420.22;;;22.53;70.96
79242;BME280;68670;48.720;9.118;2023-07-29T10:11:14;96431.25;;;22.32;70.92
79242;BME280;68670;48.720;9.118;2023-07-29T10:13:42;96421.91;;;22.37;69.61
79242;BME280;68670;48.720;9.118;2023-07-29T10:16:08;96415.94;;;23.11;68.70
79242;BME280;68670;48.720;9.118;2023-07-29T10:18:34;96410.16;;;23.16;67.52
79242;BME280;68670;48.720;9.118;2023-07-29T10:21:02;96411.03;;;23.08;63.78
79242;BME280;68670;48.720;9.118;2023-07-29T10:23:35;96422.09;;;22.96;62.11
79242;BME280;68670;48.720;9.118;2023-07-29T10:26:04;96426.84;;;23.71;60.70
79242;BME280;68670;48.720;9.118;2023-07-29T10:28:31;96415.22;;;24.44;57.98
79242;BME280;68670;48.720;9.118;2023-07-29T10:30:58;96417.34;;;24.80;54.91
79242;BME280;68670;48.720;9.118;2023-07-29T10:33:29;96411.56;;;25.09;53.82
79242;BME280;68670;48.720;9.118;2023-07-29T10:35:58;96415.34;;;24.68;54.16
79242;BME280;68670;48.720;9.118;2023-07-29T10:38:28;96402.59;;;24.71;52.37
79242;BME280;68670;48.720;9.118;2023-07-29T10:40:56;96413.81;;;25.16;52.05
79242;BME280;68670;48.720;9.118;2023-07-29T10:43:35;96409.50;;;24.73;52.23
79242;BME280;68670;48.720;9.118;2023-07-29T10:46:22;96402.41;;;24.43;54.22
79242;BME280;68670;48.720;9.118;2023-07-29T10:51:35;96396.28;;;25.19;53.36
79242;BME280;68670;48.720;9.118;2023-07-29T10:54:03;96389.13;;;25.95;52.20
79242;BME280;68670;48.720;9.118;2023-07-29T10:56:35;96391.59;;;25.96;49.36
79242;BME280;68670;48.720;9.118;2023-07-29T11:01:41;96401.53;;;26.62;44.76
79242;BME280;68670;48.720;9.118;2023-07-29T11:15:03;96401.25;;;27.10;47.52
79242;BME280;68670;48.720;9.118;2023-07-29T11:17:31;96399.56;;;26.78;47.58
79242;BME280;68670;48.720;9.118;2023-07-29T11:20:00;96406.72;;;26.60;46.82
79242;BME280;68670;48.720;9.118;2023-07-29T11:22:29;96401.59;;;26.50;47.81
79242;BME280;68670;48.720;9.118;2023-07-29T11:24:56;96410.91;;;26.26;49.67
79242;BME280;68670;48.720;9.118;2023-07-29T11:27:22;96409.50;;;25.43;48.45
79242;BME280;68670;48.720;9.118;2023-07-29T11:29:48;96398.22;;;24.94;47.94
79242;BME280;68670;48.720;9.118;2023-07-29T11:32:13;96394.53;;;25.15;50.17
79242;BME280;68670;48.720;9.118;2023-07-29T11:34:40;96390.44;;;25.00;50.65
79242;BME280;68670;48.720;9.118;2023-07-29T11:37:06;96393.47;;;25.07;50.45
79242;BME280;68670;48.720;9.118;2023-07-29T11:39:39;96390.66;;;25.92;45.74
79242;BME280;68670;48.720;9.118;2023-07-29T11:42:05;96386.81;;;26.25;46.71
79242;BME280;68670;48.720;9.118;2023-07-29T11:44:30;96387.97;;;26.80;45.74
79242;BME280;68670;48.720;9.118;2023-07-29T11:46:56;96397.41;;;26.87;43.83
79242;BME280;68670;48.720;9.118;2023-07-29T11:49:21;96382.81;;;26.82;45.21
79242;BME280;68670;48.720;9.118;2023-07-29T11:51:46;96379.22;;;26.97;43.31
79242;BME280;68670;48.720;9.118;2023-07-29T11:54:12;96381.75;;;27.33;40.35
79242;BME280;68670;48.720;9.118;2023-07-29T11:56:37;96392.00;;;27.41;40.19
79242;BME280;68670;48.720;9.118;2023-07-29T11:59:03;96395.16;;;26.93;38.86
79242;BME280;68670;48.720;9.118;2023-07-29T12:01:28;96388.28;;;27.37;37.71
79242;BME280;68670;48.720;9.118;2023-07-29T12:03:55;96382.53;;;26.43;39.95
79242;BME280;68670;48.720;9.118;2023-07-29T12:06:22;96369.59;;;27.29;40.23
79242;BME280;68670;48.720;9.118;2023-07-29T12:08:49;96375.38;;;27.68;38.00
79242;BME280;68670;48.720;9.118;2023-07-29T12:11:15;96372.22;;;27.54;38.57
79242;BME280;68670;48.720;9.118;2023-07-29T12:13:41;96358.66;;;27.75;40.29
79242;BME280;68670;48.720;9.118;2023-07-29T12:16:09;96371.47;;;27.72;37.71
79242;BME280;68670;48.720;9.118;2023-07-29T12:18:36;96363.34;;;28.41;37.53
79242;BME280;68670;48.720;9.118;2023-07-29T12:21:02;96373.03;;;29.05;36.15
79242;BME280;68670;48.720;9.118;2023-07-29T12:23:30;96369.72;;;29.22;36.26
79242;BME280;68670;48.720;9.118;2023-07-29T12:25:57;96357.56;;;29.18;35.45
79242;BME280;68670;48.720;9.118;2023-07-29T12:28:23;96383.69;;;29.38;35.83
79242;BME280;68670;48.720;9.118;2023-07-29T12:30:53;96366.22;;;29.06;36.05
79242;BME280;68670;48.720;9.118;2023-07-29T12:33:36;96358.47;;;29.26;35.46
79242;BME280;68670;48.720;9.118;2023-07-29T12:36:07;96364.34;;;28.91;35.64
79242;BME280;68670;48.720;9.118;2023-07-29T12:38:32;96355.59;;;28.19;38.14
79242;BME280;68670;48.720;9.118;2023-07-29T12:40:59;96367.81;;;28.23;37.13
79242;BME280;68670;48.720;9.118;2023-07-29T12:43:29;96356.47;;;28.61;38.88
79242;BME280;68670;48.720;9.118;2023-07-29T12:45:58;96353.28;;;28.63;36.35
79242;BME280;68670;48.720;9.118;2023-07-29T12:48:26;96360.19;;;28.65;36.68
79242;BME280;68670;48.720;9.118;2023-07-29T12:50:54;96365.25;;;28.56;37.08
79242;BME280;68670;48.720;9.118;2023-07-29T12:53:19;96370.00;;;28.33;37.37
79242;BME280;68670;48.720;9.118;2023-07-29T12:55:45;96352.81;;;28.38;38.34
79242;BME280;68670;48.720;9.118;2023-07-29T12:58:15;96361.66;;;28.01;37.90
79242;BME280;68670;48.720;9.118;2023-07-29T13:00:40;96361.06;;;27.41;38.49
79242;BME280;68670;48.720;9.118;2023-07-29T13:03:05;96366.53;;;27.03;40.15
79242;BME280;68670;48.720;9.118;2023-07-29T13:05:31;96354.53;;;27.37;40.60
79242;BME280;68670;48.720;9.118;2023-07-29T13:07:56;96367.97;;;27.44;39.45
79242;BME280;68670;48.720;9.118;2023-07-29T13:10:24;96359.66;;;28.02;37.84
79242;BME280;68670;48.720;9.118;2023-07-29T13:12:49;96354.75;;;27.29;39.45
79242;BME280;68670;48.720;9.118;2023-07-29T13:15:14;96359.13;;;27.77;38.95
79242;BME280;68670;48.720;9.118;2023-07-29T13:17:40;96357.03;;;27.74;39.86
79242;BME280;68670;48.720;9.118;2023-07-29T13:20:06;96363.81;;;27.89;39.07
79242;BME280;68670;48.720;9.118;2023-07-29T13:22:34;96354.59;;;27.72;38.45